Time;durP1;ratioP1;P1;durP2;ratioP2;P2;SDS_P1;SDS_P2;PMS_P1;PMS_P2;Temp;Humidity;BMP_temperature;BMP_pressure;BME280_temperature;BME280_humidity;BME280_pressure;Samples;Min_cycle;Max_cycle;Signal;HPM_P1;HPM_P2
2023/07/30 00:00:27;;;;;;;4.90;3.10;;;;;;;16.12;100.00;93706.91;4934985;29;20079;-65
2023/07/30 00:02:53;;;;;;;4.70;3.20;;;;;;;15.95;100.00;93714.69;4939094;29;20040;-66
2023/07/30 00:05:20;;;;;;;6.78;5.60;;;;;;;15.89;100.00;93713.75;4947563;29;20055;-64
2023/07/30 00:07:47;;;;;;;13.00;8.80;;;;;;;15.88;100.00;93714.22;4938640;29;20048;-64
2023/07/30 00:10:14;;;;;;;8.25;4.97;;;;;;;15.87;100.00;93707.13;4932195;29;20043;-65
2023/07/30 00:12:41;;;;;;;5.70;3.70;;;;;;;15.86;100.00;93706.34;4939253;29;20048;-65
2023/07/30 00:15:08;;;;;;;7.07;3.70;;;;;;;15.87;100.00;93712.66;4939925;28;20062;-67
2023/07/30 00:17:35;;;;;;;5.72;3.55;;;;;;;15.84;100.00;93710.81;4941337;29;20047;-64
2023/07/30 00:20:02;;;;;;;5.28;3.70;;;;;;;15.85;100.00;93712.34;4945456;29;20051;-66
2023/07/30 00:22:29;;;;;;;4.63;3.33;;;;;;;15.88;100.00;93711.44;4939300;29;20059;-64
2023/07/30 00:24:56;;;;;;;7.30;3.50;;;;;;;15.82;100.00;93702.97;4936998;29;20039;-64
2023/07/30 00:27:23;;;;;;;6.78;3.13;;;;;;;15.70;100.00;93710.09;4934781;29;20060;-67
2023/07/30 00:29:49;;;;;;;5.90;3.65;;;;;;;15.75;100.00;93712.31;4931058;29;20417;-65
2023/07/30 00:32:17;;;;;;;6.15;3.35;;;;;;;15.86;100.00;93717.44;4931740;29;20047;-64
2023/07/30 00:34:43;;;;;;;5.20;3.50;;;;;;;15.98;100.00;93716.56;4931789;29;20048;-64
2023/07/30 00:37:10;;;;;;;5.17;3.10;;;;;;;16.01;100.00;93720.41;4926452;29;20056;-64
2023/07/30 00:39:37;;;;;;;4.72;3.13;;;;;;;16.03;100.00;93715.19;4929841;29;20050;-64
2023/07/30 00:42:04;;;;;;;6.00;3.00;;;;;;;16.14;100.00;93717.53;4931911;29;20103;-64
2023/07/30 00:44:31;;;;;;;4.45;2.80;;;;;;;16.23;100.00;93705.72;4930823;29;20586;-64
2023/07/30 00:46:58;;;;;;;4.45;3.00;;;;;;;16.21;100.00;93711.69;4931801;29;20174;-65
2023/07/30 00:49:24;;;;;;;5.33;2.93;;;;;;;16.25;100.00;93706.78;4947540;28;20428;-66
2023/07/30 00:51:52;;;;;;;4.95;2.90;;;;;;;16.34;100.00;93708.81;4934321;29;20054;-64
2023/07/30 00:54:18;;;;;;;10.32;6.80;;;;;;;16.33;100.00;93715.59;4935387;29;20047;-64
2023/07/30 00:56:51;;;;;;;4.32;2.70;;;;;;;16.35;100.00;93705.59;4937557;29;21053;-65
2023/07/30 00:59:20;;;;;;;4.63;2.90;;;;;;;16.32;100.00;93711.28;4938634;29;20098;-64
2023/07/30 01:01:47;;;;;;;4.47;3.00;;;;;;;16.19;100.00;93711.38;4950131;28;20051;-68
2023/07/30 01:04:15;;;;;;;5.03;3.00;;;;;;;16.19;100.00;93716.94;4918374;29;20094;-64
2023/07/30 01:06:42;;;;;;;4.15;2.83;;;;;;;16.17;100.00;93717.38;4942821;29;20127;-64
2023/07/30 01:09:10;;;;;;;4.65;2.90;;;;;;;16.13;100.00;93718.75;4961569;28;20039;-64
2023/07/30 01:11:38;;;;;;;4.50;2.63;;;;;;;16.13;100.00;93716.75;4938029;29;20124;-65
2023/07/30 01:14:07;;;;;;;4.70;2.97;;;;;;;16.02;100.00;93708.13;4940184;29;20040;-64
2023/07/30 01:16:34;;;;;;;4.22;2.80;;;;;;;15.95;100.00;93709.16;4943945;29;20051;-65
2023/07/30 01:19:04;;;;;;;4.10;2.85;;;;;;;16.01;100.00;93708.56;4948886;29;20416;-64
2023/07/30 01:21:35;;;;;;;4.63;2.80;;;;;;;15.97;100.00;93703.16;4942484;29;20433;-66
2023/07/30 01:24:03;;;;;;;5.30;2.95;;;;;;;15.88;100.00;93711.44;4940847;29;20035;-64
2023/07/30 01:26:36;;;;;;;6.60;3.47;;;;;;;15.74;100.00;93705.22;4937797;29;20043;-64
2023/07/30 01:29:09;;;;;;;5.30;3.10;;;;;;;15.70;100.00;93715.63;4940699;29;20404;-65
2023/07/30 01:31:37;;;;;;;4.40;2.90;;;;;;;15.67;100.00;93713.75;4934341;29;20060;-64
2023/07/30 01:34:06;;;;;;;77.38;53.63;;;;;;;15.69;100.00;93716.84;4934768;29;20092;-64
2023/07/30 01:36:35;;;;;;;10.63;5.80;;;;;;;15.56;100.00;93718.94;4934225;29;20046;-64
2023/07/30 01:39:02;;;;;;;6.00;3.80;;;;;;;15.55;100.00;93711.84;4934613;29;20040;-64
2023/07/30 01:41:29;;;;;;;4.88;3.10;;;;;;;15.55;100.00;93709.88;4934197;29;20067;-64
2023/07/30 01:43:55;;;;;;;4.35;2.80;;;;;;;15.45;100.00;93710.25;4934659;29;20425;-66
2023/07/30 01:46:22;;;;;;;4.82;2.85;;;;;;;15.37;100.00;93707.00;4934354;29;20051;-64
2023/07/30 01:48:49;;;;;;;4.97;2.65;;;;;;;15.37;100.00;93716.06;4934629;29;20051;-64
2023/07/30 01:51:15;;;;;;;4.17;2.60;;;;;;;15.31;100.00;93711.56;4934728;29;20378;-64
2023/07/30 01:53:42;;;;;;;4.43;2.70;;;;;;;15.34;100.00;93714.19;4933922;29;20062;-64
2023/07/30 01:56:09;;;;;;;5.93;2.80;;;;;;;15.28;100.00;93713.25;4934473;29;20122;-65
2023/07/30 01:58:36;;;;;;;5.25;3.10;;;;;;;15.20;100.00;93719.50;4934305;29;20400;-64
2023/07/30 02:01:02;;;;;;;5.43;2.90;;;;;;;15.13;100.00;93717.72;4933509;29;20048;-66
2023/07/30 02:03:29;;;;;;;5.13;2.73;;;;;;;15.08;100.00;93721.84;4933925;29;20051;-64
2023/07/30 02:05:56;;;;;;;4.07;2.80;;;;;;;15.08;100.00;93726.63;4934254;29;20052;-64
2023/07/30 02:08:23;;;;;;;5.68;2.53;;;;;;;15.01;100.00;93724.09;4933866;29;20141;-65
2023/07/30 02:10:57;;;;;;;5.38;2.50;;;;;;;15.00;100.00;93717.81;4932264;29;20404;-64
2023/07/30 02:13:24;;;;;;;5.85;2.63;;;;;;;14.89;100.00;93718.19;4916904;29;20125;-64
2023/07/30 02:15:51;;;;;;;4.00;2.40;;;;;;;14.83;100.00;93721.97;4949031;28;20529;-62
2023/07/30 02:18:18;;;;;;;4.18;2.78;;;;;;;14.75;100.00;93716.69;4941561;29;20039;-62
2023/07/30 02:20:45;;;;;;;4.57;2.40;;;;;;;14.72;100.00;93716.81;4932375;29;20708;-65
2023/07/30 02:23:14;;;;;;;3.90;2.55;;;;;;;14.73;100.00;93708.09;4940016;29;20047;-63
2023/07/30 02:25:41;;;;;;;4.53;2.40;;;;;;;14.76;100.00;93714.69;4941809;28;20060;-65
2023/07/30 02:28:09;;;;;;;5.13;2.57;;;;;;;14.70;100.00;93708.97;4941803;29;20563;-62
2023/07/30 02:30:37;;;;;;;3.90;2.50;;;;;;;14.69;100.00;93699.16;4900899;29;20079;-63
2023/07/30 02:33:04;;;;;;;4.30;2.47;;;;;;;14.59;100.00;93697.53;4939760;29;20055;-65
2023/07/30 02:35:31;;;;;;;5.18;2.70;;;;;;;14.56;100.00;93695.66;4933683;29;20051;-63
2023/07/30 02:37:57;;;;;;;4.53;2.60;;;;;;;14.55;100.00;93699.63;4939110;29;20054;-62
2023/07/30 02:40:24;;;;;;;5.13;2.43;;;;;;;14.50;100.00;93700.16;4935870;29;20509;-63
2023/07/30 02:42:51;;;;;;;4.03;2.20;;;;;;;14.49;100.00;93709.69;4934093;29;20050;-65
2023/07/30 02:45:18;;;;;;;5.07;2.47;;;;;;;14.49;100.00;93717.97;4941319;29;20078;-62
2023/07/30 02:47:44;;;;;;;4.85;2.35;;;;;;;14.44;100.00;93715.75;4948380;29;21638;-63
2023/07/30 02:50:11;;;;;;;4.05;2.42;;;;;;;14.38;100.00;93721.81;4916471;29;20121;-62
2023/07/30 02:52:38;;;;;;;6.37;3.30;;;;;;;14.40;100.00;93713.09;4923902;29;20714;-62
2023/07/30 02:55:05;;;;;;;4.75;2.42;;;;;;;14.23;100.00;93723.53;4939402;29;20412;-63
2023/07/30 02:57:32;;;;;;;4.72;2.47;;;;;;;14.17;100.00;93720.56;4933234;29;20416;-64
2023/07/30 02:59:58;;;;;;;6.13;2.30;;;;;;;14.23;100.00;93720.00;4939049;29;20410;-63
2023/07/30 03:02:25;;;;;;;3.90;2.40;;;;;;;14.25;100.00;93718.34;4932149;29;20055;-63
2023/07/30 03:04:52;;;;;;;4.30;2.50;;;;;;;14.18;100.00;93713.81;4940241;29;20051;-62
2023/07/30 03:07:22;;;;;;;4.68;2.95;;;;;;;14.26;100.00;93728.16;4948997;29;20160;-62
2023/07/30 03:09:49;;;;;;;4.95;2.70;;;;;;;14.30;100.00;93726.03;4932660;29;20054;-62
2023/07/30 03:12:16;;;;;;;4.15;2.30;;;;;;;14.33;100.00;93733.44;4944141;28;20056;-62
2023/07/30 03:14:43;;;;;;;5.13;2.40;;;;;;;14.26;100.00;93722.63;4932581;29;20048;-64
2023/07/30 03:17:09;;;;;;;5.07;2.40;;;;;;;14.26;100.00;93735.66;4932915;29;20392;-63
2023/07/30 03:19:36;;;;;;;5.07;2.60;;;;;;;14.23;100.00;93729.06;4932281;29;20050;-63
2023/07/30 03:22:03;;;;;;;5.47;2.60;;;;;;;14.18;100.00;93733.16;4932906;29;20062;-63
2023/07/30 03:24:29;;;;;;;4.55;2.60;;;;;;;14.18;100.00;93724.06;4932183;29;20061;-63
2023/07/30 03:26:56;;;;;;;4.38;2.60;;;;;;;14.13;100.00;93719.13;4933052;29;20064;-63
2023/07/30 03:29:23;;;;;;;4.13;2.63;;;;;;;14.13;100.00;93736.44;4943762;28;20490;-63
2023/07/30 03:31:50;;;;;;;3.63;2.38;;;;;;;14.08;100.00;93733.47;4939891;28;20218;-64
2023/07/30 03:34:16;;;;;;;5.70;2.90;;;;;;;14.02;100.00;93726.97;4940127;29;20105;-63
2023/07/30 03:36:43;;;;;;;4.78;2.75;;;;;;;14.01;100.00;93730.94;4946964;28;20044;-63
2023/07/30 03:39:10;;;;;;;5.43;2.70;;;;;;;13.89;100.00;93727.75;4937119;29;20051;-66
2023/07/30 03:41:37;;;;;;;4.60;2.60;;;;;;;13.85;100.00;93726.31;4931669;29;20051;-63
2023/07/30 03:44:04;;;;;;;5.80;2.58;;;;;;;13.89;100.00;93735.25;4940376;29;20086;-63
2023/07/30 03:46:31;;;;;;;4.40;2.80;;;;;;;13.86;100.00;93736.88;4927422;29;20038;-63
2023/07/30 03:48:58;;;;;;;4.78;2.40;;;;;;;13.88;100.00;93737.22;4937509;29;20485;-63
2023/07/30 03:51:24;;;;;;;5.60;2.60;;;;;;;13.81;100.00;93740.22;4935143;29;20497;-64
2023/07/30 03:53:51;;;;;;;3.90;2.60;;;;;;;13.80;100.00;93738.66;4939243;29;20043;-63
2023/07/30 03:56:18;;;;;;;4.75;2.70;;;;;;;13.74;100.00;93734.91;4940277;29;20058;-65
2023/07/30 03:58:45;;;;;;;4.53;2.70;;;;;;;13.75;100.00;93739.22;4943040;29;20051;-64
2023/07/30 04:01:11;;;;;;;4.80;2.75;;;;;;;13.78;100.00;93735.56;4944528;29;20043;-63
2023/07/30 04:03:38;;;;;;;4.65;2.75;;;;;;;13.78;100.00;93736.34;4945560;29;20069;-63
2023/07/30 04:06:05;;;;;;;4.70;2.53;;;;;;;13.70;100.00;93737.78;4932050;29;20349;-64
2023/07/30 04:08:32;;;;;;;5.38;3.05;;;;;;;13.76;100.00;93738.78;4928896;29;20147;-65
2023/07/30 04:10:59;;;;;;;7.70;4.97;;;;;;;13.79;100.00;93732.38;4932116;29;20051;-65
2023/07/30 04:13:25;;;;;;;12.30;7.43;;;;;;;13.77;100.00;93734.03;4939533;29;20051;-63
2023/07/30 04:15:52;;;;;;;4.85;3.30;;;;;;;13.78;100.00;93741.06;4939668;29;20401;-64
2023/07/30 04:18:19;;;;;;;4.93;3.00;;;;;;;13.78;100.00;93738.31;4943030;29;20119;-64
2023/07/30 04:20:46;;;;;;;4.40;2.70;;;;;;;13.67;100.00;93746.94;4938238;29;20200;-64
2023/07/30 04:23:13;;;;;;;4.45;2.70;;;;;;;13.76;100.00;93741.53;4931751;29;20059;-65
2023/07/30 04:25:40;;;;;;;4.50;2.70;;;;;;;13.71;100.00;93736.56;4931261;29;20436;-64
2023/07/30 04:28:06;;;;;;;5.63;2.78;;;;;;;13.83;100.00;93739.78;4929855;29;20074;-66
2023/07/30 04:30:33;;;;;;;3.87;2.40;;;;;;;13.81;100.00;93756.00;4930641;29;20051;-63
2023/07/30 04:33:00;;;;;;;4.88;2.45;;;;;;;13.84;100.00;93750.34;4939531;29;20062;-64
2023/07/30 04:35:27;;;;;;;3.65;2.60;;;;;;;13.87;100.00;93748.72;4931001;29;20231;-64
2023/07/30 04:37:54;;;;;;;4.45;2.80;;;;;;;13.92;100.00;93757.22;4939249;29;20043;-67
2023/07/30 04:40:21;;;;;;;4.57;2.80;;;;;;;14.06;100.00;93757.97;4926914;29;20824;-65
2023/07/30 04:42:48;;;;;;;5.43;2.90;;;;;;;14.11;100.00;93765.72;4931552;29;20056;-64
2023/07/30 04:45:15;;;;;;;4.95;2.97;;;;;;;13.83;100.00;93764.59;4929769;29;20058;-63
2023/07/30 04:47:42;;;;;;;4.70;2.70;;;;;;;14.05;100.00;93759.97;4930350;29;20047;-64
2023/07/30 04:50:09;;;;;;;4.80;2.60;;;;;;;14.14;100.00;93760.06;4939383;29;20075;-64
2023/07/30 04:52:37;;;;;;;4.20;2.55;;;;;;;14.14;100.00;93762.06;4944582;29;20489;-67
2023/07/30 04:55:05;;;;;;;5.80;2.90;;;;;;;14.10;100.00;93769.66;4931511;29;20050;-63
2023/07/30 04:57:31;;;;;;;4.32;2.75;;;;;;;14.09;100.00;93768.13;4931174;29;20385;-64
2023/07/30 04:59:58;;;;;;;4.53;2.83;;;;;;;14.29;100.00;93767.91;4931715;29;20052;-65
2023/07/30 05:02:25;;;;;;;5.63;2.90;;;;;;;14.42;100.00;93765.88;4914274;29;20054;-63
2023/07/30 05:04:52;;;;;;;4.60;2.90;;;;;;;14.49;100.00;93759.38;4931579;29;20071;-64
2023/07/30 05:07:18;;;;;;;5.23;2.73;;;;;;;14.66;100.00;93760.78;4931643;29;20127;-67
2023/07/30 05:09:45;;;;;;;4.90;3.00;;;;;;;14.72;100.00;93767.28;4930116;29;20446;-65
2023/07/30 05:12:12;;;;;;;4.20;2.90;;;;;;;14.83;100.00;93774.44;4925191;29;20051;-64
2023/07/30 05:14:39;;;;;;;6.55;4.38;;;;;;;15.02;100.00;93776.16;4938604;29;20448;-64
2023/07/30 05:17:05;;;;;;;6.38;4.45;;;;;;;15.28;100.00;93774.06;4936894;29;20051;-64
2023/07/30 05:19:33;;;;;;;4.10;2.80;;;;;;;15.14;100.00;93774.56;4933852;29;20106;-63
2023/07/30 05:22:01;;;;;;;4.55;2.90;;;;;;;15.17;100.00;93768.13;4937082;29;20324;-65
2023/07/30 05:24:28;;;;;;;5.75;2.90;;;;;;;15.29;100.00;93770.09;4938478;28;20059;-65
2023/07/30 05:26:55;;;;;;;4.10;2.55;;;;;;;15.51;100.00;93761.78;4929727;29;20063;-66
2023/07/30 05:29:22;;;;;;;5.63;2.63;;;;;;;15.77;100.00;93759.66;4930697;29;20055;-64
2023/07/30 05:31:48;;;;;;;4.83;2.87;;;;;;;16.02;100.00;93748.84;4931114;29;20081;-64
2023/07/30 05:34:15;;;;;;;4.63;3.00;;;;;;;16.26;100.00;93749.88;4931229;29;20048;-64
2023/07/30 05:36:42;;;;;;;5.53;3.30;;;;;;;16.52;100.00;93755.94;4932493;29;20055;-65
2023/07/30 05:39:08;;;;;;;8.50;3.10;;;;;;;16.89;100.00;93755.28;4934664;29;20416;-65
2023/07/30 05:41:35;;;;;;;5.88;2.80;;;;;;;17.26;100.00;93753.25;4934314;29;20154;-64
2023/07/30 05:44:02;;;;;;;4.20;2.40;;;;;;;17.13;100.00;93756.19;4939690;29;20485;-64
2023/07/30 05:46:29;;;;;;;4.45;2.40;;;;;;;17.80;100.00;93745.31;4934033;29;20392;-64
2023/07/30 05:48:56;;;;;;;4.15;2.78;;;;;;;17.84;100.00;93753.53;4942400;29;20047;-66
2023/07/30 05:51:22;;;;;;;3.90;2.80;;;;;;;19.00;100.00;93744.81;4941615;29;20049;-65
2023/07/30 05:53:49;;;;;;;3.70;2.55;;;;;;;21.67;100.00;93754.00;4926558;29;20044;-65
2023/07/30 05:56:18;;;;;;;3.50;2.40;;;;;;;23.57;100.00;93743.88;4943321;29;20058;-65
2023/07/30 05:58:45;;;;;;;3.55;2.40;;;;;;;24.91;97.80;93743.19;4948909;28;20620;-67
2023/07/30 06:01:12;;;;;;;4.00;2.17;;;;;;;25.14;96.58;93745.19;4934420;29;20054;-63
2023/07/30 06:03:39;;;;;;;3.67;2.03;;;;;;;24.93;92.14;93751.09;4933381;29;20051;-63
2023/07/30 06:06:05;;;;;;;3.13;1.85;;;;;;;23.27;100.00;93749.88;4927925;29;20055;-63
2023/07/30 06:08:32;;;;;;;2.87;1.67;;;;;;;23.50;100.00;93754.31;4941319;29;20052;-66
2023/07/30 06:11:03;;;;;;;3.15;1.60;;;;;;;23.94;95.63;93757.72;4941999;29;20493;-64
2023/07/30 06:13:30;;;;;;;3.67;1.70;;;;;;;24.38;93.60;93764.66;4941385;29;20055;-65
2023/07/30 06:15:57;;;;;;;2.30;1.50;;;;;;;23.11;97.22;93757.69;4938762;29;20369;-67
2023/07/30 06:18:23;;;;;;;3.35;1.70;;;;;;;21.76;100.00;93772.66;4936742;29;20052;-64
2023/07/30 06:20:50;;;;;;;3.13;1.80;;;;;;;21.05;100.00;93770.78;4940958;29;20418;-63
2023/07/30 06:23:17;;;;;;;2.70;1.60;;;;;;;20.75;100.00;93784.06;4941744;29;20048;-63
2023/07/30 06:25:44;;;;;;;2.72;1.70;;;;;;;20.50;100.00;93769.50;4939188;29;20129;-64
2023/07/30 06:28:12;;;;;;;2.80;1.70;;;;;;;20.74;100.00;93779.75;4928539;29;20070;-63
2023/07/30 06:30:39;;;;;;;2.72;1.52;;;;;;;21.22;100.00;93779.38;4926949;29;20051;-64
2023/07/30 06:33:06;;;;;;;2.80;1.63;;;;;;;23.25;100.00;93777.63;4921475;29;20158;-64
2023/07/30 06:35:33;;;;;;;3.10;1.55;;;;;;;23.22;100.00;93785.00;4933186;29;20086;-63
2023/07/30 06:38:00;;;;;;;2.65;1.50;;;;;;;24.27;95.04;93775.88;4933548;29;20053;-63
2023/07/30 06:40:27;;;;;;;2.50;1.50;;;;;;;23.52;96.11;93776.97;4932722;29;20047;-64
2023/07/30 06:42:53;;;;;;;3.40;1.67;;;;;;;24.56;90.16;93779.47;4933367;29;20055;-65
2023/07/30 06:45:20;;;;;;;3.50;1.53;;;;;;;27.88;72.03;93774.50;4915970;29;20114;-64
2023/07/30 06:47:47;;;;;;;2.70;1.60;;;;;;;25.90;81.44;93786.78;4901705;29;20052;-64
2023/07/30 06:50:14;;;;;;;4.32;1.52;;;;;;;24.38;87.14;93784.28;4926250;29;20043;-64
2023/07/30 06:52:40;;;;;;;3.65;1.30;;;;;;;25.44;83.14;93779.81;4940640;29;20436;-64
2023/07/30 06:55:07;;;;;;;2.38;1.50;;;;;;;25.23;82.88;93778.59;4934954;29;20060;-64
2023/07/30 06:57:34;;;;;;;2.80;1.40;;;;;;;28.34;67.62;93785.91;4932496;29;20047;-67
2023/07/30 07:00:01;;;;;;;2.67;1.40;;;;;;;30.33;58.17;93778.94;4938786;29;20043;-64
2023/07/30 07:02:28;;;;;;;2.30;1.40;;;;;;;29.94;56.40;93774.09;4944039;29;20049;-64
2023/07/30 07:04:55;;;;;;;2.50;1.40;;;;;;;28.90;56.43;93777.88;4939916;29;20044;-64
2023/07/30 07:07:21;;;;;;;3.17;1.55;;;;;;;29.68;54.18;93779.25;4940584;29;20118;-64
2023/07/30 07:09:48;;;;;;;2.30;1.47;;;;;;;30.34;51.58;93774.78;4940946;29;20121;-65
2023/07/30 07:12:15;;;;;;;2.30;1.30;;;;;;;29.33;52.67;93765.53;4932093;29;20083;-66
2023/07/30 07:14:42;;;;;;;2.33;1.30;;;;;;;30.38;50.88;93782.94;4940375;29;20051;-65
2023/07/30 07:17:09;;;;;;;3.20;1.30;;;;;;;30.43;50.85;93773.56;4940789;29;20070;-67
2023/07/30 07:19:36;;;;;;;2.40;1.38;;;;;;;29.74;50.28;93786.84;4922896;29;20051;-64
2023/07/30 07:22:04;;;;;;;2.30;1.40;;;;;;;30.18;51.56;93779.47;4938647;29;20039;-64
2023/07/30 07:24:31;;;;;;;4.05;1.40;;;;;;;30.95;47.12;93785.97;4933941;29;20048;-65
2023/07/30 07:26:58;;;;;;;3.15;1.50;;;;;;;31.59;46.62;93786.63;4926236;29;20444;-67
2023/07/30 07:29:25;;;;;;;2.20;1.30;;;;;;;33.37;44.33;93771.59;4932125;29;20048;-65
2023/07/30 07:31:53;;;;;;;2.22;1.30;;;;;;;30.76;45.11;93785.38;4931149;29;20497;-64
2023/07/30 07:34:20;;;;;;;3.70;1.40;;;;;;;27.10;55.92;93776.91;4931584;29;20393;-65
2023/07/30 07:36:46;;;;;;;2.60;1.42;;;;;;;25.68;65.99;93792.50;4931500;29;20054;-64
2023/07/30 07:39:13;;;;;;;2.90;1.50;;;;;;;25.30;68.80;93783.69;4940406;29;20058;-64
2023/07/30 07:41:40;;;;;;;2.78;1.40;;;;;;;24.76;74.64;93792.47;4939725;29;20063;-66
2023/07/30 07:44:06;;;;;;;2.30;1.35;;;;;;;24.76;75.63;93796.03;4929886;29;20461;-64
2023/07/30 07:46:33;;;;;;;3.20;1.50;;;;;;;26.65;67.18;93785.03;4931653;29;20050;-65
2023/07/30 07:49:00;;;;;;;2.60;1.60;;;;;;;28.57;57.77;93777.88;4938238;29;20052;-64
2023/07/30 07:51:27;;;;;;;2.20;1.23;;;;;;;28.13;56.09;93785.72;4939764;29;20055;-65
2023/07/30 07:53:53;;;;;;;2.65;1.40;;;;;;;26.04;62.22;93789.78;4929679;29;20047;-65
2023/07/30 07:56:20;;;;;;;2.70;1.40;;;;;;;25.63;64.48;93785.59;4928132;29;20409;-64
2023/07/30 07:58:47;;;;;;;2.47;1.30;;;;;;;25.37;66.86;93788.00;4931496;29;20077;-66
2023/07/30 08:01:13;;;;;;;3.58;1.40;;;;;;;24.15;70.10;93789.13;4932237;29;20519;-64
2023/07/30 08:03:40;;;;;;;2.70;1.58;;;;;;;24.25;68.42;93795.25;4931292;29;20102;-64
2023/07/30 08:06:07;;;;;;;2.72;1.58;;;;;;;24.16;71.23;93793.44;4931631;29;20044;-66
2023/07/30 08:08:34;;;;;;;2.65;1.50;;;;;;;24.57;69.62;93797.81;4931238;29;20586;-64
2023/07/30 08:11:08;;;;;;;3.27;1.47;;;;;;;25.18;68.56;93793.41;4931935;29;20051;-64
2023/07/30 08:13:35;;;;;;;2.88;1.63;;;;;;;26.85;59.85;93807.09;4931729;29;20051;-64
2023/07/30 08:16:02;;;;;;;4.45;1.60;;;;;;;26.41;58.11;93806.16;4931465;29;20052;-65
2023/07/30 08:18:29;;;;;;;2.75;1.63;;;;;;;28.16;52.58;93798.00;4931416;29;20192;-66
2023/07/30 08:20:56;;;;;;;2.88;1.50;;;;;;;27.60;48.80;93794.56;4931889;29;20054;-65
2023/07/30 08:23:22;;;;;;;2.40;1.40;;;;;;;26.23;52.83;93793.47;4929749;29;20052;-66
2023/07/30 08:25:49;;;;;;;3.45;1.60;;;;;;;28.07;50.00;93797.06;4943728;28;20043;-64
2023/07/30 08:28:17;;;;;;;2.40;1.50;;;;;;;27.97;46.94;93795.94;4935481;29;20043;-64
2023/07/30 08:30:44;;;;;;;2.80;1.40;;;;;;;28.27;45.92;93801.41;4938851;29;20059;-65
2023/07/30 08:33:11;;;;;;;3.03;1.67;;;;;;;28.20;44.63;93793.56;4939553;29;20047;-66
2023/07/30 08:35:38;;;;;;;2.80;1.50;;;;;;;27.30;45.90;93805.91;4938841;29;20065;-65
2023/07/30 08:38:05;;;;;;;3.63;1.70;;;;;;;26.77;47.46;93808.97;4937642;29;20059;-65
2023/07/30 08:40:32;;;;;;;2.63;1.70;;;;;;;26.40;47.62;93809.47;4947412;28;20051;-66
2023/07/30 08:43:02;;;;;;;2.60;1.60;;;;;;;25.25;50.53;93799.31;4936875;29;20055;-64
2023/07/30 08:45:29;;;;;;;2.60;1.52;;;;;;;25.78;48.41;93812.66;4934288;29;20153;-65
2023/07/30 08:47:55;;;;;;;2.67;1.60;;;;;;;25.44;49.46;93805.09;4938142;29;20058;-63
2023/07/30 08:50:22;;;;;;;3.00;1.80;;;;;;;24.67;51.52;93810.31;4938609;29;20060;-64
2023/07/30 08:52:49;;;;;;;3.88;1.80;;;;;;;25.78;49.68;93809.84;4939394;29;20048;-64
2023/07/30 08:55:17;;;;;;;3.10;1.55;;;;;;;25.77;49.13;93805.47;4931281;29;20044;-65
2023/07/30 08:57:45;;;;;;;2.95;1.73;;;;;;;27.16;45.69;93812.69;4924505;29;20068;-65
2023/07/30 09:00:15;;;;;;;2.53;1.60;;;;;;;27.38;45.38;93803.28;4931631;29;20539;-64
2023/07/30 09:02:48;;;;;;;3.08;1.70;;;;;;;28.33;42.93;93797.72;4930562;29;20047;-65
2023/07/30 09:05:15;;;;;;;2.58;1.60;;;;;;;26.55;44.52;93803.50;4931458;29;20151;-64
2023/07/30 09:07:42;;;;;;;4.30;1.70;;;;;;;28.16;41.88;93812.84;4930771;29;20485;-64
2023/07/30 09:10:09;;;;;;;3.05;1.60;;;;;;;26.38;44.04;93798.75;4932572;29;20048;-64
2023/07/30 09:12:36;;;;;;;2.80;1.67;;;;;;;26.33;44.96;93807.25;4934813;29;20333;-66
2023/07/30 09:15:06;;;;;;;3.22;1.80;;;;;;;25.00;46.86;93791.94;4935332;29;20047;-64
2023/07/30 09:17:34;;;;;;;2.65;1.60;;;;;;;25.01;48.17;93799.84;4934410;29;20162;-63
2023/07/30 09:20:05;;;;;;;3.97;1.60;;;;;;;26.33;46.57;93807.25;4935088;29;20054;-66
2023/07/30 09:22:36;;;;;;;2.85;1.70;;;;;;;27.20;43.33;93805.47;4934462;29;20047;-64
2023/07/30 09:25:03;;;;;;;3.70;1.60;;;;;;;28.93;40.15;93807.84;4934727;29;20046;-63
2023/07/30 09:27:32;;;;;;;2.90;1.60;;;;;;;28.95;38.92;93805.25;4934615;29;20044;-64
2023/07/30 09:30:02;;;;;;;2.90;1.67;;;;;;;28.49;40.74;93817.25;4934587;29;20051;-63
2023/07/30 09:32:30;;;;;;;2.70;1.70;;;;;;;27.62;42.06;93805.31;4934461;29;20054;-63
2023/07/30 09:35:08;;;;;;;2.60;1.55;;;;;;;28.76;39.95;93800.44;4935049;29;20055;-63
2023/07/30 09:37:41;;;;;;;5.73;1.60;;;;;;;29.25;36.47;93825.53;4934593;29;20094;-64
2023/07/30 09:40:10;;;;;;;2.65;1.52;;;;;;;29.96;35.57;93819.59;4934491;29;20416;-66
2023/07/30 09:42:39;;;;;;;2.85;1.40;;;;;;;29.83;35.63;93829.63;4934131;29;20044;-67
2023/07/30 09:45:17;;;;;;;2.60;1.50;;;;;;;30.91;34.21;93821.63;4934617;29;20044;-65
2023/07/30 09:47:51;;;;;;;2.95;1.70;;;;;;;29.86;32.46;93822.88;4933797;29;20189;-64
2023/07/30 09:50:18;;;;;;;2.70;1.70;;;;;;;29.39;35.07;93831.22;4934658;29;20670;-64
2023/07/30 09:52:45;;;;;;;5.07;2.03;;;;;;;30.12;33.47;93840.34;4933870;29;20073;-64
2023/07/30 09:55:12;;;;;;;2.90;1.70;;;;;;;30.36;31.58;93828.03;4934489;29;20512;-64
2023/07/30 09:57:39;;;;;;;3.78;1.50;;;;;;;31.34;30.39;93835.22;4931516;29;20501;-64
2023/07/30 10:00:08;;;;;;;3.60;1.50;;;;;;;31.22;30.50;93825.47;4934407;29;20043;-66
2023/07/30 10:02:42;;;;;;;3.63;1.70;;;;;;;33.01;28.50;93818.03;4941608;29;20146;-66
2023/07/30 10:05:20;;;;;;;2.60;1.55;;;;;;;31.80;29.52;93821.38;4921080;29;20489;-64
2023/07/30 10:08:12;;;;;;;2.65;1.60;;;;;;;31.17;30.07;93815.81;4933323;29;20699;-65
2023/07/30 10:10:39;;;;;;;3.88;1.70;;;;;;;31.35;30.75;93816.13;4940411;29;20055;-64
2023/07/30 10:13:09;;;;;;;3.10;1.70;;;;;;;30.78;31.87;93816.75;4939191;29;20047;-64
2023/07/30 10:15:39;;;;;;;2.37;1.33;;;;;;;30.91;31.00;93821.63;4941503;29;20040;-64
2023/07/30 10:18:06;;;;;;;2.63;1.50;;;;;;;29.40;32.79;93824.25;4924484;29;20047;-64
2023/07/30 10:20:34;;;;;;;2.40;1.50;;;;;;;30.48;31.85;93822.88;4941152;29;20102;-63
2023/07/30 10:23:01;;;;;;;2.67;1.60;;;;;;;29.63;34.02;93835.91;4941061;29;20058;-64
2023/07/30 10:25:41;;;;;;;2.92;1.60;;;;;;;28.73;34.04;93846.69;4941216;29;20051;-64
2023/07/30 10:28:08;;;;;;;2.83;1.60;;;;;;;29.88;32.42;93850.59;4932701;29;20094;-63
2023/07/30 10:30:35;;;;;;;2.72;1.65;;;;;;;30.10;30.42;93840.88;4941146;29;20056;-65
2023/07/30 10:33:03;;;;;;;3.60;1.75;;;;;;;28.34;32.40;93856.47;4928840;29;20062;-63
2023/07/30 10:35:47;;;;;;;3.47;1.65;;;;;;;29.46;31.08;93864.50;4940867;29;20415;-64
2023/07/30 10:38:28;;;;;;;3.20;1.80;;;;;;;28.53;32.32;93867.75;4940698;29;20053;-65
2023/07/30 10:41:16;;;;;;;2.87;1.70;;;;;;;28.69;31.05;93866.00;4932623;29;20054;-64
2023/07/30 10:43:47;;;;;;;3.25;1.60;;;;;;;27.94;30.87;93858.28;4940791;29;20052;-64
2023/07/30 10:46:18;;;;;;;2.97;1.70;;;;;;;27.45;32.08;93848.56;4941656;29;20514;-63
2023/07/30 10:48:47;;;;;;;4.60;1.80;;;;;;;25.91;34.75;93844.53;4935881;29;20641;-65
2023/07/30 10:51:16;;;;;;;4.07;1.83;;;;;;;26.26;35.19;93857.16;4937380;29;20058;-65
2023/07/30 10:53:46;;;;;;;3.43;1.80;;;;;;;27.65;33.37;93846.56;4940942;29;20148;-64
2023/07/30 10:56:16;;;;;;;2.78;1.60;;;;;;;28.22;32.26;93838.94;4941336;29;20354;-64
2023/07/30 10:58:49;;;;;;;5.47;2.00;;;;;;;26.90;33.76;93859.03;4940504;29;20087;-64
2023/07/30 11:01:16;;;;;;;3.33;1.90;;;;;;;25.73;35.43;93861.22;4940923;29;20043;-62
2023/07/30 11:03:43;;;;;;;3.03;1.85;;;;;;;26.55;34.00;93848.53;4935928;29;20043;-63
2023/07/30 11:06:10;;;;;;;3.90;1.60;;;;;;;26.01;34.90;93858.31;4937522;29;20061;-64
2023/07/30 11:08:39;;;;;;;3.92;1.80;;;;;;;26.75;34.31;93850.97;4940395;29;20421;-65
2023/07/30 11:11:08;;;;;;;2.90;1.65;;;;;;;27.06;34.31;93854.53;4940825;29;20132;-63
2023/07/30 11:13:39;;;;;;;3.60;1.67;;;;;;;26.20;35.30;93847.19;4940288;29;20055;-66
2023/07/30 11:16:08;;;;;;;3.00;1.83;;;;;;;26.18;35.84;93842.13;4938497;29;20511;-63
2023/07/30 11:18:36;;;;;;;3.90;1.70;;;;;;;25.74;35.66;93831.84;4950797;29;20105;-65
2023/07/30 11:21:12;;;;;;;3.53;1.70;;;;;;;25.63;35.30;93846.66;4938251;29;20055;-65
2023/07/30 11:23:41;;;;;;;4.10;1.77;;;;;;;24.33;36.27;93855.16;4940148;29;20047;-65
2023/07/30 11:26:13;;;;;;;3.17;1.90;;;;;;;24.28;37.82;93855.91;4940581;29;20066;-64
2023/07/30 11:28:40;;;;;;;3.05;1.70;;;;;;;24.59;37.29;93854.19;4924341;29;20059;-68
2023/07/30 11:31:09;;;;;;;2.93;1.70;;;;;;;24.63;35.88;93846.28;4938694;29;20567;-64